Portada
METAR-TAF:

METAR-TAF

Aeropuertos :

Atenas, Grecia

Aeropuerto Internacional Eleftherios Venizelos

latitud: 37-56N, longitud: 023-56E, altitud: 94 m

Observación

El informe se hizo hace 17 minutos, a las 20:20 UTC
Viento 5 kt del suroeste
Temperatura 26°C
Humedad 48%
Presión 1008 hPa
Visibilidad 10 km o más
sin nubes por debajo de 1500 m y sin presencia de cumulonimbus.

METAR: LGAV 242020Z 23005KT CAVOK 26/14 Q1008 NOSIG

Hora: 23:37 (20:37 UTC)

Pronóstico

El informe se hizo hace 3 horas y 37 minutos, a las 17:00 UTC
Pronóstico válido del 24 a las 18 UTC al 25 a las 18 UTC
Viento 5 kt con dirección variable
Visibilidad 10 km o más
Escasas nubes a una altura de 3000 ft
Evolucionando progresivamente
del 25 a las 09 UTC al 25 a las 11 UTC
Viento 12 kt del sur

TAF: LGAV 241700Z 2418/2518 VRB05KT 9999 FEW030 BECMG 2509/2511 19012KT

Observaciones y pronósticos meteorológicos de más de 4000 aeropuertos (mensajes METAR y TAF).

Los puntos amarillos y rojos representan las estaciones disponibles.

Ponga el ratón en el punto deseado para ver el nombre de la estación.

Haga clic para ver las observaciones y los pronósticos meteorológicos.

Para cambiar el mapa : haga clic en los botones verdes con una cruz de color negro para hacer un zoom, en el botón verde con un guión para alejar o en las flechas verdes para mapas adyacentes.


METAR-TAF: